Nefterudovoz-29m — UIMI — position and weather

sailwx.info

Track history (hours):
 
Tides and Currents Weather Stations Pressure Air Temp Water Temp Dewpoint Dewpoint Depression Visibility Wind Speed Wind Dir Waves Ship Positions

Nefterudovoz-29m

Last reported at 2015-Mar-08 21:33 UTC. Time now 2015-Mar-29 16:09 UTC.
Position N 44°22' E 038°17'.
Warning: this ship's position is 20 days out of date.

Length 119 m; draft 2.5 m.

Type: Cargo ship. MMSI: 273345300.

Date/timePositionNaut miles runAvg speedWind from/ knotsBaromVisibWave heightAir tempDewpointWater temp
2015-Mar-08 21:33N 44°22' E 038°17'0 0.0
2015-Mar-08 20:33N 44°22' E 038°17'0 0.0
2015-Mar-08 19:33N 44°22' E 038°17'0 0.0
2015-Mar-08 18:33N 44°22' E 038°17'0 0.0
2015-Mar-08 17:33N 44°22' E 038°17'0 0.0
2015-Mar-08 16:32N 44°22' E 038°17'0 0.0
2015-Mar-08 15:33N 44°22' E 038°17'0 0.0
2015-Mar-08 14:33N 44°22' E 038°17'0 0.0
2015-Mar-08 13:31N 44°22' E 038°17'0 0.0
2015-Mar-08 12:33N 44°22' E 038°17'0 0.0
2015-Mar-08 11:32N 44°22' E 038°17'0 0.0
2015-Mar-08 10:33N 44°22' E 038°17'0 0.0
2015-Mar-08 09:33N 44°22' E 038°17'  
2015-Mar-03 02:21N 43°41' E 039°13'5 6.5
2015-Mar-03 01:33N 43°44' E 039°08'6 6.5
2015-Mar-03 00:33N 43°49' E 039°02'6 6.4
2015-Mar-02 23:33N 43°54' E 038°56'7 6.5
2015-Mar-02 22:33N 43°59' E 038°50'7 6.6
2015-Mar-02 21:34N 44°04' E 038°44'7 6.5
2015-Mar-02 20:33N 44°09' E 038°38'31 6.0
2015-Mar-02 15:25N 44°16' E 037°56'5 6.2
2015-Mar-02 14:33N 44°16' E 037°48'6 6.4
2015-Mar-02 13:33N 44°16' E 037°40'7 6.5
2015-Mar-02 12:32N 44°16' E 037°30'7 6.5
2015-Mar-02 11:28N 44°16' E 037°21'105 6.6
2015-Mar-01 19:31N 44°15' E 034°54'6 6.2
2015-Mar-01 18:33N 44°15' E 034°45'6 6.5
2015-Mar-01 17:33N 44°15' E 034°36'6 6.4
2015-Mar-01 16:33N 44°15' E 034°27'6 6.3
2015-Mar-01 15:33N 44°15' E 034°19'6 6.1
2015-Mar-01 14:30N 44°15' E 034°10'6 6.0
2015-Mar-01 13:31N 44°15' E 034°01'177 4.8
2015-Feb-28 00:32N 46°35' E 031°26'6 6.5
2015-Feb-27 23:33N 46°35' E 031°35'7 7.3
2015-Feb-27 22:33N 46°36' E 031°46'7 7.1
2015-Feb-27 21:33N 46°39' E 031°55'6 6.3
2015-Feb-27 20:33N 46°45' E 031°54'7 6.6
2015-Feb-27 19:34N 46°51' E 031°57'5 5.4
2015-Feb-27 18:33N 46°56' E 031°60'2 1.6
2015-Feb-27 17:33N 46°56' E 031°57'0 0.0
2015-Feb-27 16:33N 46°56' E 031°57'0 0.0
2015-Feb-27 15:33N 46°56' E 031°57'0 0.0
2015-Feb-27 14:33N 46°56' E 031°57'0 0.0
2015-Feb-27 13:33N 46°56' E 031°57'0 0.0
2015-Feb-27 12:33N 46°56' E 031°57'0 0.0
2015-Feb-27 11:34N 46°56' E 031°57'0 0.0
2015-Feb-27 10:34N 46°56' E 031°57'0 0.0
2015-Feb-27 09:33N 46°56' E 031°57'0 0.0
2015-Feb-27 08:33N 46°56' E 031°57'0 0.0
2015-Feb-27 07:33N 46°56' E 031°57'0 0.0
2015-Feb-27 06:33N 46°56' E 031°57'0 0.0
2015-Feb-27 05:33N 46°56' E 031°57'0 0.0
2015-Feb-27 04:33N 46°56' E 031°57'0 0.0
2015-Feb-27 03:33N 46°56' E 031°57'0 0.0
2015-Feb-27 02:33N 46°56' E 031°57'0 0.0
2015-Feb-27 01:33N 46°56' E 031°57'0 0.0
2015-Feb-27 00:33N 46°56' E 031°57'0 0.0
2015-Feb-26 23:33N 46°56' E 031°57'0 0.0
2015-Feb-26 22:33N 46°56' E 031°57'0 0.0
2015-Feb-26 21:34N 46°56' E 031°57'  
Track history (hours):
 
Tides and Currents Weather Stations Pressure Air Temp Water Temp Dewpoint Dewpoint Depression Visibility Wind Speed Wind Dir Waves Ship Positions

Nefterudovoz-29m

Last reported at 2015-Mar-08 21:33 UTC. Time now 2015-Mar-29 16:09 UTC.
Position N 44°22' E 038°17'.
Warning: this ship's position is 20 days out of date.

Length 119 m; draft 2.5 m.

Type: Cargo ship. MMSI: 273345300.

Date/timePositionNaut miles runAvg speedWind from/ knotsBaromVisibWave heightAir tempDewpointWater temp
2015-Mar-08 21:33N 44°22' E 038°17'0 0.0
2015-Mar-08 20:33N 44°22' E 038°17'0 0.0
2015-Mar-08 19:33N 44°22' E 038°17'0 0.0
2015-Mar-08 18:33N 44°22' E 038°17'0 0.0
2015-Mar-08 17:33N 44°22' E 038°17'0 0.0
2015-Mar-08 16:32N 44°22' E 038°17'0 0.0
2015-Mar-08 15:33N 44°22' E 038°17'0 0.0
2015-Mar-08 14:33N 44°22' E 038°17'0 0.0
2015-Mar-08 13:31N 44°22' E 038°17'0 0.0
2015-Mar-08 12:33N 44°22' E 038°17'0 0.0
2015-Mar-08 11:32N 44°22' E 038°17'0 0.0
2015-Mar-08 10:33N 44°22' E 038°17'0 0.0
2015-Mar-08 09:33N 44°22' E 038°17'  
2015-Mar-03 02:21N 43°41' E 039°13'5 6.5
2015-Mar-03 01:33N 43°44' E 039°08'6 6.5
2015-Mar-03 00:33N 43°49' E 039°02'6 6.4
2015-Mar-02 23:33N 43°54' E 038°56'7 6.5
2015-Mar-02 22:33N 43°59' E 038°50'7 6.6
2015-Mar-02 21:34N 44°04' E 038°44'7 6.5
2015-Mar-02 20:33N 44°09' E 038°38'31 6.0
2015-Mar-02 15:25N 44°16' E 037°56'5 6.2
2015-Mar-02 14:33N 44°16' E 037°48'6 6.4
2015-Mar-02 13:33N 44°16' E 037°40'7 6.5
2015-Mar-02 12:32N 44°16' E 037°30'7 6.5
2015-Mar-02 11:28N 44°16' E 037°21'105 6.6
2015-Mar-01 19:31N 44°15' E 034°54'6 6.2
2015-Mar-01 18:33N 44°15' E 034°45'6 6.5
2015-Mar-01 17:33N 44°15' E 034°36'6 6.4
2015-Mar-01 16:33N 44°15' E 034°27'6 6.3
2015-Mar-01 15:33N 44°15' E 034°19'6 6.1
2015-Mar-01 14:30N 44°15' E 034°10'6 6.0
2015-Mar-01 13:31N 44°15' E 034°01'177 4.8
2015-Feb-28 00:32N 46°35' E 031°26'6 6.5
2015-Feb-27 23:33N 46°35' E 031°35'7 7.3
2015-Feb-27 22:33N 46°36' E 031°46'7 7.1
2015-Feb-27 21:33N 46°39' E 031°55'6 6.3
2015-Feb-27 20:33N 46°45' E 031°54'7 6.6
2015-Feb-27 19:34N 46°51' E 031°57'5 5.4
2015-Feb-27 18:33N 46°56' E 031°60'2 1.6
2015-Feb-27 17:33N 46°56' E 031°57'0 0.0
2015-Feb-27 16:33N 46°56' E 031°57'0 0.0
2015-Feb-27 15:33N 46°56' E 031°57'0 0.0
2015-Feb-27 14:33N 46°56' E 031°57'0 0.0
2015-Feb-27 13:33N 46°56' E 031°57'0 0.0
2015-Feb-27 12:33N 46°56' E 031°57'0 0.0
2015-Feb-27 11:34N 46°56' E 031°57'0 0.0
2015-Feb-27 10:34N 46°56' E 031°57'0 0.0
2015-Feb-27 09:33N 46°56' E 031°57'0 0.0
2015-Feb-27 08:33N 46°56' E 031°57'0 0.0
2015-Feb-27 07:33N 46°56' E 031°57'0 0.0
2015-Feb-27 06:33N 46°56' E 031°57'0 0.0
2015-Feb-27 05:33N 46°56' E 031°57'0 0.0
2015-Feb-27 04:33N 46°56' E 031°57'0 0.0
2015-Feb-27 03:33N 46°56' E 031°57'0 0.0
2015-Feb-27 02:33N 46°56' E 031°57'0 0.0
2015-Feb-27 01:33N 46°56' E 031°57'0 0.0
2015-Feb-27 00:33N 46°56' E 031°57'0 0.0
2015-Feb-26 23:33N 46°56' E 031°57'0 0.0
2015-Feb-26 22:33N 46°56' E 031°57'0 0.0
2015-Feb-26 21:34N 46°56' E 031°57'  

Dump ship's entire track history